sensor_id;sensor_type;location;lat;lon;timestamp;pressure;altitude;pressure_sealevel;temperature;humidity
55517;BME280;41724;51.176;-0.708;2022-07-23T00:01:49;101454.11;;;23.48;47.97
55517;BME280;41724;51.176;-0.708;2022-07-23T00:04:16;101448.84;;;23.31;47.95
55517;BME280;41724;51.176;-0.708;2022-07-23T00:06:43;101450.78;;;23.18;47.90
55517;BME280;41724;51.176;-0.708;2022-07-23T00:09:11;101455.95;;;23.14;48.00
55517;BME280;41724;51.176;-0.708;2022-07-23T00:11:38;101454.16;;;23.30;48.17
55517;BME280;41724;51.176;-0.708;2022-07-23T00:14:05;101453.00;;;23.30;48.00
55517;BME280;41724;51.176;-0.708;2022-07-23T00:16:33;101453.89;;;23.15;47.92
55517;BME280;41724;51.176;-0.708;2022-07-23T00:19:00;101451.63;;;23.32;48.07
55517;BME280;41724;51.176;-0.708;2022-07-23T00:21:27;101446.81;;;23.29;48.22
55517;BME280;41724;51.176;-0.708;2022-07-23T00:23:54;101447.51;;;23.05;48.65
55517;BME280;41724;51.176;-0.708;2022-07-23T00:26:22;101445.85;;;22.98;48.82
55517;BME280;41724;51.176;-0.708;2022-07-23T00:28:49;101449.41;;;23.06;48.83
55517;BME280;41724;51.176;-0.708;2022-07-23T00:31:16;101454.46;;;22.91;48.70
55517;BME280;41724;51.176;-0.708;2022-07-23T00:33:43;101458.10;;;22.98;48.49
55517;BME280;41724;51.176;-0.708;2022-07-23T00:36:11;101454.05;;;23.17;48.56
55517;BME280;41724;51.176;-0.708;2022-07-23T00:38:38;101454.49;;;23.00;48.36
55517;BME280;41724;51.176;-0.708;2022-07-23T00:41:05;101453.41;;;23.29;48.20
55517;BME280;41724;51.176;-0.708;2022-07-23T00:43:32;101451.02;;;23.28;48.18
55517;BME280;41724;51.176;-0.708;2022-07-23T00:46:00;101444.79;;;22.93;48.10
55517;BME280;41724;51.176;-0.708;2022-07-23T00:48:27;101440.62;;;23.27;48.25
55517;BME280;41724;51.176;-0.708;2022-07-23T00:50:54;101436.60;;;23.01;47.81
55517;BME280;41724;51.176;-0.708;2022-07-23T00:53:21;101435.05;;;23.02;48.16
55517;BME280;41724;51.176;-0.708;2022-07-23T00:55:49;101431.91;;;22.95;48.30
55517;BME280;41724;51.176;-0.708;2022-07-23T00:58:16;101429.84;;;22.81;48.39
55517;BME280;41724;51.176;-0.708;2022-07-23T01:00:43;101431.44;;;22.73;48.44
55517;BME280;41724;51.176;-0.708;2022-07-23T01:03:11;101431.56;;;22.60;48.75
55517;BME280;41724;51.176;-0.708;2022-07-23T01:05:38;101432.18;;;22.42;48.88
55517;BME280;41724;51.176;-0.708;2022-07-23T01:08:06;101438.14;;;22.43;48.84
55517;BME280;41724;51.176;-0.708;2022-07-23T01:10:33;101442.05;;;22.61;48.93
55517;BME280;41724;51.176;-0.708;2022-07-23T01:13:02;101444.12;;;22.36;49.26
55517;BME280;41724;51.176;-0.708;2022-07-23T01:15:30;101444.97;;;22.44;49.46
55517;BME280;41724;51.176;-0.708;2022-07-23T01:17:57;101448.58;;;22.13;49.01
55517;BME280;41724;51.176;-0.708;2022-07-23T01:20:25;101448.59;;;22.14;49.31
55517;BME280;41724;51.176;-0.708;2022-07-23T01:22:52;101448.84;;;22.00;49.86
55517;BME280;41724;51.176;-0.708;2022-07-23T01:25:20;101452.25;;;21.95;49.95
55517;BME280;41724;51.176;-0.708;2022-07-23T01:27:48;101450.94;;;22.05;49.89
55517;BME280;41724;51.176;-0.708;2022-07-23T01:30:15;101452.38;;;21.98;50.06
55517;BME280;41724;51.176;-0.708;2022-07-23T01:32:43;101452.78;;;21.91;50.13
55517;BME280;41724;51.176;-0.708;2022-07-23T01:35:10;101454.23;;;21.91;50.31
55517;BME280;41724;51.176;-0.708;2022-07-23T01:37:38;101451.90;;;21.99;50.09
55517;BME280;41724;51.176;-0.708;2022-07-23T01:40:06;101450.17;;;22.29;49.92
55517;BME280;41724;51.176;-0.708;2022-07-23T01:42:33;101449.47;;;21.76;49.88
55517;BME280;41724;51.176;-0.708;2022-07-23T01:45:04;101444.48;;;22.09;49.73
55517;BME280;41724;51.176;-0.708;2022-07-23T01:47:31;101446.03;;;22.02;49.96
55517;BME280;41724;51.176;-0.708;2022-07-23T01:49:58;101445.10;;;22.20;49.86
55517;BME280;41724;51.176;-0.708;2022-07-23T01:52:25;101448.09;;;22.06;50.17
55517;BME280;41724;51.176;-0.708;2022-07-23T01:54:53;101448.87;;;22.08;49.99
55517;BME280;41724;51.176;-0.708;2022-07-23T01:57:20;101446.54;;;22.04;50.08
55517;BME280;41724;51.176;-0.708;2022-07-23T01:59:48;101447.81;;;21.81;50.49
55517;BME280;41724;51.176;-0.708;2022-07-23T02:02:15;101445.53;;;21.87;50.34
55517;BME280;41724;51.176;-0.708;2022-07-23T02:04:42;101447.42;;;21.87;50.06
55517;BME280;41724;51.176;-0.708;2022-07-23T02:07:10;101441.79;;;21.87;49.98
55517;BME280;41724;51.176;-0.708;2022-07-23T02:09:37;101439.95;;;21.89;49.52
55517;BME280;41724;51.176;-0.708;2022-07-23T02:12:05;101441.28;;;21.73;49.82
55517;BME280;41724;51.176;-0.708;2022-07-23T02:14:32;101440.98;;;21.55;50.12
55517;BME280;41724;51.176;-0.708;2022-07-23T02:16:59;101440.23;;;21.37;50.31
55517;BME280;41724;51.176;-0.708;2022-07-23T02:19:28;101441.55;;;21.32;49.96
55517;BME280;41724;51.176;-0.708;2022-07-23T02:21:55;101444.66;;;21.23;50.74
55517;BME280;41724;51.176;-0.708;2022-07-23T02:24:22;101444.54;;;20.92;50.97
55517;BME280;41724;51.176;-0.708;2022-07-23T02:26:50;101445.56;;;21.32;50.77
55517;BME280;41724;51.176;-0.708;2022-07-23T02:29:17;101447.41;;;21.13;50.58
55517;BME280;41724;51.176;-0.708;2022-07-23T02:31:44;101455.28;;;21.10;50.62
55517;BME280;41724;51.176;-0.708;2022-07-23T02:34:11;101456.40;;;20.70;50.86
55517;BME280;41724;51.176;-0.708;2022-07-23T02:36:39;101455.48;;;21.12;50.88
55517;BME280;41724;51.176;-0.708;2022-07-23T02:39:06;101454.47;;;21.03;50.93
55517;BME280;41724;51.176;-0.708;2022-07-23T02:41:33;101456.36;;;20.71;50.97
55517;BME280;41724;51.176;-0.708;2022-07-23T02:44:01;101458.71;;;20.75;51.06
55517;BME280;41724;51.176;-0.708;2022-07-23T02:46:28;101462.01;;;21.02;50.80
55517;BME280;41724;51.176;-0.708;2022-07-23T02:48:55;101459.63;;;21.03;50.94
55517;BME280;41724;51.176;-0.708;2022-07-23T02:51:22;101457.82;;;20.80;51.09
55517;BME280;41724;51.176;-0.708;2022-07-23T02:53:50;101454.72;;;20.58;51.40
55517;BME280;41724;51.176;-0.708;2022-07-23T02:56:17;101458.06;;;20.59;51.82
55517;BME280;41724;51.176;-0.708;2022-07-23T02:58:44;101457.95;;;20.63;51.22
55517;BME280;41724;51.176;-0.708;2022-07-23T03:01:11;101453.29;;;20.57;51.00
55517;BME280;41724;51.176;-0.708;2022-07-23T03:03:39;101456.36;;;20.44;51.24
55517;BME280;41724;51.176;-0.708;2022-07-23T03:06:06;101457.47;;;20.40;51.11
55517;BME280;41724;51.176;-0.708;2022-07-23T03:08:33;101451.97;;;20.42;50.84
55517;BME280;41724;51.176;-0.708;2022-07-23T03:11:00;101452.51;;;20.37;50.85
55517;BME280;41724;51.176;-0.708;2022-07-23T03:13:28;101448.00;;;20.37;50.72
55517;BME280;41724;51.176;-0.708;2022-07-23T03:15:55;101453.44;;;20.24;50.09
55517;BME280;41724;51.176;-0.708;2022-07-23T03:18:22;101453.08;;;20.16;50.23
55517;BME280;41724;51.176;-0.708;2022-07-23T03:20:50;101455.38;;;20.01;50.63
55517;BME280;41724;51.176;-0.708;2022-07-23T03:23:17;101455.64;;;19.99;50.70
55517;BME280;41724;51.176;-0.708;2022-07-23T03:25:44;101452.88;;;20.06;51.01
55517;BME280;41724;51.176;-0.708;2022-07-23T03:28:11;101451.03;;;19.85;50.53
55517;BME280;41724;51.176;-0.708;2022-07-23T03:30:41;101451.46;;;19.93;50.30
55517;BME280;41724;51.176;-0.708;2022-07-23T03:33:09;101451.63;;;19.74;50.27
55517;BME280;41724;51.176;-0.708;2022-07-23T03:35:36;101451.85;;;20.09;50.46
55517;BME280;41724;51.176;-0.708;2022-07-23T03:38:03;101450.59;;;19.74;50.47
55517;BME280;41724;51.176;-0.708;2022-07-23T03:40:31;101450.04;;;19.80;50.42
55517;BME280;41724;51.176;-0.708;2022-07-23T03:42:58;101450.12;;;19.96;50.59
55517;BME280;41724;51.176;-0.708;2022-07-23T03:45:27;101447.63;;;19.60;50.57
55517;BME280;41724;51.176;-0.708;2022-07-23T03:47:54;101447.29;;;19.66;50.19
55517;BME280;41724;51.176;-0.708;2022-07-23T03:50:22;101443.58;;;19.67;49.96
55517;BME280;41724;51.176;-0.708;2022-07-23T03:52:49;101443.52;;;19.66;50.54
55517;BME280;41724;51.176;-0.708;2022-07-23T03:55:16;101444.76;;;19.42;50.40
55517;BME280;41724;51.176;-0.708;2022-07-23T03:57:43;101446.98;;;19.57;50.62
55517;BME280;41724;51.176;-0.708;2022-07-23T04:00:12;101448.97;;;19.59;50.17
55517;BME280;41724;51.176;-0.708;2022-07-23T04:02:40;101451.30;;;19.53;49.97
55517;BME280;41724;51.176;-0.708;2022-07-23T04:05:07;101454.62;;;19.32;50.33
55517;BME280;41724;51.176;-0.708;2022-07-23T04:07:34;101452.72;;;19.21;50.51
55517;BME280;41724;51.176;-0.708;2022-07-23T04:10:02;101454.29;;;19.21;50.51
55517;BME280;41724;51.176;-0.708;2022-07-23T04:12:29;101456.21;;;19.23;50.26
55517;BME280;41724;51.176;-0.708;2022-07-23T04:14:56;101459.34;;;19.27;50.23
55517;BME280;41724;51.176;-0.708;2022-07-23T04:17:23;101460.96;;;19.19;50.22
55517;BME280;41724;51.176;-0.708;2022-07-23T04:19:51;101455.57;;;19.20;50.09
55517;BME280;41724;51.176;-0.708;2022-07-23T04:22:18;101457.39;;;19.13;49.95
55517;BME280;41724;51.176;-0.708;2022-07-23T04:24:45;101454.41;;;18.99;50.31
55517;BME280;41724;51.176;-0.708;2022-07-23T04:27:12;101455.30;;;18.82;50.56
55517;BME280;41724;51.176;-0.708;2022-07-23T04:29:40;101454.41;;;18.79;50.54
55517;BME280;41724;51.176;-0.708;2022-07-23T04:32:07;101456.65;;;19.03;50.27
55517;BME280;41724;51.176;-0.708;2022-07-23T04:34:34;101458.68;;;18.50;50.22
55517;BME280;41724;51.176;-0.708;2022-07-23T04:37:02;101455.25;;;19.01;50.26
55517;BME280;41724;51.176;-0.708;2022-07-23T04:39:29;101460.17;;;19.24;50.04
55517;BME280;41724;51.176;-0.708;2022-07-23T04:41:56;101471.12;;;18.69;50.33
55517;BME280;41724;51.176;-0.708;2022-07-23T04:44:24;101475.28;;;19.22;50.08
55517;BME280;41724;51.176;-0.708;2022-07-23T04:46:51;101472.89;;;18.93;50.64
55517;BME280;41724;51.176;-0.708;2022-07-23T04:49:18;101478.53;;;18.46;50.98
55517;BME280;41724;51.176;-0.708;2022-07-23T04:51:45;101479.04;;;18.76;50.79
55517;BME280;41724;51.176;-0.708;2022-07-23T04:54:13;101479.75;;;18.39;51.08
55517;BME280;41724;51.176;-0.708;2022-07-23T04:56:40;101475.70;;;18.70;50.86
55517;BME280;41724;51.176;-0.708;2022-07-23T04:59:07;101472.88;;;18.73;50.66
55517;BME280;41724;51.176;-0.708;2022-07-23T05:01:35;101473.28;;;18.56;50.61
55517;BME280;41724;51.176;-0.708;2022-07-23T05:04:02;101468.84;;;19.01;51.48
55517;BME280;41724;51.176;-0.708;2022-07-23T05:06:29;101469.20;;;18.59;51.35
55517;BME280;41724;51.176;-0.708;2022-07-23T05:08:58;101474.41;;;18.71;51.05
55517;BME280;41724;51.176;-0.708;2022-07-23T05:11:25;101472.22;;;18.76;50.85
55517;BME280;41724;51.176;-0.708;2022-07-23T05:13:52;101474.44;;;18.65;51.40
55517;BME280;41724;51.176;-0.708;2022-07-23T05:16:20;101478.05;;;18.87;51.32
55517;BME280;41724;51.176;-0.708;2022-07-23T05:18:48;101482.55;;;18.65;51.50
55517;BME280;41724;51.176;-0.708;2022-07-23T05:21:15;101480.50;;;18.73;51.40
55517;BME280;41724;51.176;-0.708;2022-07-23T05:23:42;101483.02;;;18.76;51.23
55517;BME280;41724;51.176;-0.708;2022-07-23T05:26:10;101480.09;;;18.77;51.21
55517;BME280;41724;51.176;-0.708;2022-07-23T05:28:37;101478.38;;;18.82;51.26
55517;BME280;41724;51.176;-0.708;2022-07-23T05:31:04;101474.53;;;18.85;51.17
55517;BME280;41724;51.176;-0.708;2022-07-23T05:33:31;101473.26;;;18.84;51.43
55517;BME280;41724;51.176;-0.708;2022-07-23T05:36:01;101468.95;;;18.85;51.49
55517;BME280;41724;51.176;-0.708;2022-07-23T05:38:28;101469.41;;;18.95;50.97
55517;BME280;41724;51.176;-0.708;2022-07-23T05:40:55;101467.68;;;18.88;51.39
55517;BME280;41724;51.176;-0.708;2022-07-23T05:43:22;101466.01;;;18.86;51.56
55517;BME280;41724;51.176;-0.708;2022-07-23T05:45:50;101465.73;;;18.82;51.90
55517;BME280;41724;51.176;-0.708;2022-07-23T05:48:17;101461.22;;;18.91;51.51
55517;BME280;41724;51.176;-0.708;2022-07-23T05:50:44;101460.42;;;19.02;51.94
55517;BME280;41724;51.176;-0.708;2022-07-23T05:53:11;101458.76;;;19.02;51.94
55517;BME280;41724;51.176;-0.708;2022-07-23T05:55:39;101463.42;;;19.24;51.91
55517;BME280;41724;51.176;-0.708;2022-07-23T05:58:06;101469.48;;;19.40;51.90
55517;BME280;41724;51.176;-0.708;2022-07-23T06:00:33;101471.17;;;19.29;52.95
55517;BME280;41724;51.176;-0.708;2022-07-23T06:03:01;101471.31;;;19.34;53.98
55517;BME280;41724;51.176;-0.708;2022-07-23T06:05:28;101467.44;;;19.77;53.74
55517;BME280;41724;51.176;-0.708;2022-07-23T06:07:56;101474.54;;;19.52;53.86
55517;BME280;41724;51.176;-0.708;2022-07-23T06:10:23;101472.32;;;19.51;53.67
55517;BME280;41724;51.176;-0.708;2022-07-23T06:12:50;101471.47;;;19.38;54.00
55517;BME280;41724;51.176;-0.708;2022-07-23T06:15:17;101471.35;;;19.57;53.96
55517;BME280;41724;51.176;-0.708;2022-07-23T06:17:45;101476.96;;;19.09;54.70
55517;BME280;41724;51.176;-0.708;2022-07-23T06:20:12;101478.33;;;18.92;55.19
55517;BME280;41724;51.176;-0.708;2022-07-23T06:22:39;101473.91;;;19.72;53.72
55517;BME280;41724;51.176;-0.708;2022-07-23T06:25:07;101475.55;;;19.84;53.60
55517;BME280;41724;51.176;-0.708;2022-07-23T06:27:35;101482.70;;;19.37;54.78
55517;BME280;41724;51.176;-0.708;2022-07-23T06:30:03;101484.48;;;19.39;54.61
55517;BME280;41724;51.176;-0.708;2022-07-23T06:32:29;101485.23;;;19.64;54.10
55517;BME280;41724;51.176;-0.708;2022-07-23T06:34:57;101482.77;;;19.97;53.37
55517;BME280;41724;51.176;-0.708;2022-07-23T06:37:24;101481.05;;;19.73;52.99
55517;BME280;41724;51.176;-0.708;2022-07-23T06:39:51;101479.80;;;19.47;52.77
55517;BME280;41724;51.176;-0.708;2022-07-23T06:42:19;101478.48;;;19.16;54.32
55517;BME280;41724;51.176;-0.708;2022-07-23T06:44:46;101480.00;;;18.95;55.21
55517;BME280;41724;51.176;-0.708;2022-07-23T06:47:13;101482.84;;;19.80;52.90
55517;BME280;41724;51.176;-0.708;2022-07-23T06:49:40;101476.61;;;19.30;52.81
55517;BME280;41724;51.176;-0.708;2022-07-23T06:52:07;101477.65;;;19.99;52.07
55517;BME280;41724;51.176;-0.708;2022-07-23T06:54:35;101477.52;;;19.36;51.46
55517;BME280;41724;51.176;-0.708;2022-07-23T06:57:02;101471.67;;;19.36;51.85
55517;BME280;41724;51.176;-0.708;2022-07-23T06:59:29;101474.52;;;20.11;50.94
55517;BME280;41724;51.176;-0.708;2022-07-23T07:01:57;101475.10;;;20.32;50.48
55517;BME280;41724;51.176;-0.708;2022-07-23T07:04:24;101469.82;;;20.74;49.32
55517;BME280;41724;51.176;-0.708;2022-07-23T07:06:51;101470.84;;;20.71;49.21
55517;BME280;41724;51.176;-0.708;2022-07-23T07:09:19;101470.46;;;20.44;48.54
55517;BME280;41724;51.176;-0.708;2022-07-23T07:11:46;101468.31;;;20.63;48.45
55517;BME280;41724;51.176;-0.708;2022-07-23T07:14:13;101473.03;;;20.84;48.32
55517;BME280;41724;51.176;-0.708;2022-07-23T07:16:40;101480.64;;;20.28;49.60
55517;BME280;41724;51.176;-0.708;2022-07-23T07:19:08;101482.67;;;21.05;48.77
55517;BME280;41724;51.176;-0.708;2022-07-23T07:21:35;101488.77;;;21.30;48.37
55517;BME280;41724;51.176;-0.708;2022-07-23T07:24:03;101493.41;;;20.75;48.85
55517;BME280;41724;51.176;-0.708;2022-07-23T07:26:30;101492.31;;;19.76;50.03
55517;BME280;41724;51.176;-0.708;2022-07-23T07:28:57;101493.50;;;20.59;48.89
55517;BME280;41724;51.176;-0.708;2022-07-23T07:31:25;101499.02;;;20.25;49.66
55517;BME280;41724;51.176;-0.708;2022-07-23T07:33:52;101500.73;;;20.45;48.97
55517;BME280;41724;51.176;-0.708;2022-07-23T07:36:19;101493.79;;;21.33;47.79
55517;BME280;41724;51.176;-0.708;2022-07-23T07:38:47;101496.46;;;21.08;46.57
55517;BME280;41724;51.176;-0.708;2022-07-23T07:41:15;101499.79;;;20.57;48.67
55517;BME280;41724;51.176;-0.708;2022-07-23T07:43:42;101500.16;;;20.29;48.80
55517;BME280;41724;51.176;-0.708;2022-07-23T07:46:09;101494.47;;;20.17;49.24
55517;BME280;41724;51.176;-0.708;2022-07-23T07:48:37;101493.98;;;20.90;47.29
55517;BME280;41724;51.176;-0.708;2022-07-23T07:51:05;101491.58;;;20.63;46.37
55517;BME280;41724;51.176;-0.708;2022-07-23T07:53:33;101488.23;;;21.16;44.20
55517;BME280;41724;51.176;-0.708;2022-07-23T07:56:00;101486.90;;;21.38;43.30
55517;BME280;41724;51.176;-0.708;2022-07-23T07:58:27;101489.90;;;20.92;43.73
55517;BME280;41724;51.176;-0.708;2022-07-23T08:00:54;101492.49;;;20.63;45.59
55517;BME280;41724;51.176;-0.708;2022-07-23T08:03:21;101490.58;;;20.67;44.00
55517;BME280;41724;51.176;-0.708;2022-07-23T08:05:49;101495.82;;;20.80;45.11
55517;BME280;41724;51.176;-0.708;2022-07-23T08:08:16;101495.04;;;20.34;44.28
55517;BME280;41724;51.176;-0.708;2022-07-23T08:10:43;101499.33;;;20.45;44.96
55517;BME280;41724;51.176;-0.708;2022-07-23T08:13:13;101503.83;;;20.00;44.53
55517;BME280;41724;51.176;-0.708;2022-07-23T08:15:42;101502.33;;;19.89;47.39
55517;BME280;41724;51.176;-0.708;2022-07-23T08:18:10;101500.23;;;20.15;45.40
55517;BME280;41724;51.176;-0.708;2022-07-23T08:20:37;101498.91;;;21.18;44.16
55517;BME280;41724;51.176;-0.708;2022-07-23T08:23:06;101496.18;;;21.06;43.62
55517;BME280;41724;51.176;-0.708;2022-07-23T08:25:35;101500.71;;;21.23;42.70
55517;BME280;41724;51.176;-0.708;2022-07-23T08:28:04;101503.62;;;20.87;44.26
55517;BME280;41724;51.176;-0.708;2022-07-23T08:30:33;101495.83;;;20.86;44.20
55517;BME280;41724;51.176;-0.708;2022-07-23T08:33:03;101500.36;;;20.74;45.13
55517;BME280;41724;51.176;-0.708;2022-07-23T08:35:32;101487.06;;;21.35;43.38
55517;BME280;41724;51.176;-0.708;2022-07-23T08:38:00;101483.18;;;22.06;42.01
55517;BME280;41724;51.176;-0.708;2022-07-23T08:40:31;101484.44;;;22.11;41.51
55517;BME280;41724;51.176;-0.708;2022-07-23T08:43:00;101489.95;;;22.30;39.76
55517;BME280;41724;51.176;-0.708;2022-07-23T08:45:35;101489.28;;;22.13;39.73
55517;BME280;41724;51.176;-0.708;2022-07-23T08:48:03;101491.87;;;21.79;38.91
55517;BME280;41724;51.176;-0.708;2022-07-23T08:50:32;101485.06;;;22.05;38.76
55517;BME280;41724;51.176;-0.708;2022-07-23T08:53:01;101483.81;;;22.46;38.25
55517;BME280;41724;51.176;-0.708;2022-07-23T08:55:29;101483.78;;;21.90;39.44
55517;BME280;41724;51.176;-0.708;2022-07-23T08:57:56;101484.32;;;22.09;39.69
55517;BME280;41724;51.176;-0.708;2022-07-23T09:00:23;101487.02;;;22.71;37.77
55517;BME280;41724;51.176;-0.708;2022-07-23T09:02:51;101490.58;;;22.84;37.60
55517;BME280;41724;51.176;-0.708;2022-07-23T09:05:19;101495.68;;;22.62;36.98
55517;BME280;41724;51.176;-0.708;2022-07-23T09:08:20;101495.91;;;22.38;38.33
55517;BME280;41724;51.176;-0.708;2022-07-23T09:10:52;101491.43;;;22.16;37.28
55517;BME280;41724;51.176;-0.708;2022-07-23T09:13:31;101491.82;;;22.14;38.05
55517;BME280;41724;51.176;-0.708;2022-07-23T09:16:01;101502.14;;;20.99;39.28
55517;BME280;41724;51.176;-0.708;2022-07-23T09:18:31;101491.30;;;20.83;40.10
55517;BME280;41724;51.176;-0.708;2022-07-23T09:21:09;101496.43;;;21.26;37.88
55517;BME280;41724;51.176;-0.708;2022-07-23T09:23:38;101501.32;;;21.13;38.96
55517;BME280;41724;51.176;-0.708;2022-07-23T09:26:18;101497.97;;;21.57;38.14
55517;BME280;41724;51.176;-0.708;2022-07-23T09:28:54;101487.44;;;22.12;35.73
55517;BME280;41724;51.176;-0.708;2022-07-23T09:31:22;101488.21;;;22.13;35.46
55517;BME280;41724;51.176;-0.708;2022-07-23T09:33:50;101486.53;;;21.79;35.44
55517;BME280;41724;51.176;-0.708;2022-07-23T09:36:28;101486.23;;;21.84;36.25
55517;BME280;41724;51.176;-0.708;2022-07-23T09:38:55;101482.94;;;21.93;36.46
55517;BME280;41724;51.176;-0.708;2022-07-23T09:41:22;101481.47;;;21.83;37.25
55517;BME280;41724;51.176;-0.708;2022-07-23T09:43:55;101488.20;;;21.74;33.54
55517;BME280;41724;51.176;-0.708;2022-07-23T09:46:24;101492.25;;;21.27;35.77
55517;BME280;41724;51.176;-0.708;2022-07-23T09:48:51;101496.87;;;21.53;36.87
55517;BME280;41724;51.176;-0.708;2022-07-23T09:51:18;101495.37;;;21.40;35.83
55517;BME280;41724;51.176;-0.708;2022-07-23T09:53:46;101494.49;;;21.66;35.10
55517;BME280;41724;51.176;-0.708;2022-07-23T09:56:14;101481.62;;;21.91;33.39
55517;BME280;41724;51.176;-0.708;2022-07-23T09:58:41;101488.74;;;22.19;34.32
55517;BME280;41724;51.176;-0.708;2022-07-23T10:01:10;101496.01;;;22.64;33.78
55517;BME280;41724;51.176;-0.708;2022-07-23T10:03:39;101493.72;;;22.70;35.01
55517;BME280;41724;51.176;-0.708;2022-07-23T10:06:08;101492.87;;;23.11;33.69
55517;BME280;41724;51.176;-0.708;2022-07-23T10:08:40;101486.76;;;23.49;32.62
55517;BME280;41724;51.176;-0.708;2022-07-23T10:11:08;101489.89;;;22.63;32.32
55517;BME280;41724;51.176;-0.708;2022-07-23T10:13:37;101485.88;;;22.71;34.06
55517;BME280;41724;51.176;-0.708;2022-07-23T10:16:06;101482.02;;;23.33;32.05
55517;BME280;41724;51.176;-0.708;2022-07-23T10:18:34;101485.71;;;23.24;34.12
55517;BME280;41724;51.176;-0.708;2022-07-23T10:21:07;101488.49;;;22.62;36.05
55517;BME280;41724;51.176;-0.708;2022-07-23T10:23:40;101485.17;;;23.04;34.53
55517;BME280;41724;51.176;-0.708;2022-07-23T10:26:15;101485.44;;;23.26;33.59
55517;BME280;41724;51.176;-0.708;2022-07-23T10:28:58;101486.52;;;22.82;33.18
55517;BME280;41724;51.176;-0.708;2022-07-23T10:31:40;101482.40;;;22.64;35.34
55517;BME280;41724;51.176;-0.708;2022-07-23T10:34:19;101476.14;;;23.40;34.43
55517;BME280;41724;51.176;-0.708;2022-07-23T10:36:53;101475.76;;;23.65;33.16
55517;BME280;41724;51.176;-0.708;2022-07-23T10:39:29;101469.89;;;23.51;33.72
55517;BME280;41724;51.176;-0.708;2022-07-23T10:42:08;101474.08;;;24.12;32.82
55517;BME280;41724;51.176;-0.708;2022-07-23T10:44:39;101469.82;;;24.24;32.58
55517;BME280;41724;51.176;-0.708;2022-07-23T10:47:06;101478.27;;;21.70;37.36
55517;BME280;41724;51.176;-0.708;2022-07-23T10:49:34;101476.01;;;22.46;36.14
55517;BME280;41724;51.176;-0.708;2022-07-23T10:52:19;101466.87;;;23.16;35.57
55517;BME280;41724;51.176;-0.708;2022-07-23T10:54:48;101458.68;;;23.86;33.23
55517;BME280;41724;51.176;-0.708;2022-07-23T10:57:16;101452.18;;;23.81;32.70
55517;BME280;41724;51.176;-0.708;2022-07-23T11:00:21;101454.20;;;23.68;34.03
55517;BME280;41724;51.176;-0.708;2022-07-23T11:02:50;101456.49;;;23.13;34.45
55517;BME280;41724;51.176;-0.708;2022-07-23T11:05:19;101461.93;;;23.70;33.50
55517;BME280;41724;51.176;-0.708;2022-07-23T11:08:19;101458.09;;;24.23;31.73
55517;BME280;41724;51.176;-0.708;2022-07-23T11:10:50;101456.15;;;24.81;30.57
55517;BME280;41724;51.176;-0.708;2022-07-23T11:13:49;101455.75;;;23.56;32.06
55517;BME280;41724;51.176;-0.708;2022-07-23T11:16:22;101455.15;;;23.67;32.63
55517;BME280;41724;51.176;-0.708;2022-07-23T11:18:59;101457.47;;;23.55;33.88
55517;BME280;41724;51.176;-0.708;2022-07-23T11:21:45;101458.81;;;24.13;33.75
55517;BME280;41724;51.176;-0.708;2022-07-23T11:24:15;101457.96;;;23.99;33.51
55517;BME280;41724;51.176;-0.708;2022-07-23T11:26:48;101458.62;;;23.51;34.63
55517;BME280;41724;51.176;-0.708;2022-07-23T11:29:48;101451.39;;;24.48;33.33
55517;BME280;41724;51.176;-0.708;2022-07-23T11:32:34;101447.42;;;24.44;33.19
55517;BME280;41724;51.176;-0.708;2022-07-23T11:35:03;101449.26;;;25.12;32.31
55517;BME280;41724;51.176;-0.708;2022-07-23T11:37:48;101438.39;;;25.76;31.64
55517;BME280;41724;51.176;-0.708;2022-07-23T11:40:16;101440.19;;;25.47;31.39
55517;BME280;41724;51.176;-0.708;2022-07-23T11:43:01;101442.69;;;25.11;31.11
55517;BME280;41724;51.176;-0.708;2022-07-23T11:45:33;101426.70;;;25.57;31.26
55517;BME280;41724;51.176;-0.708;2022-07-23T11:48:01;101430.49;;;26.24;30.93
55517;BME280;41724;51.176;-0.708;2022-07-23T11:50:28;101436.72;;;25.38;30.97
55517;BME280;41724;51.176;-0.708;2022-07-23T11:52:56;101441.07;;;25.91;31.78
55517;BME280;41724;51.176;-0.708;2022-07-23T11:55:23;101441.33;;;25.40;31.48
55517;BME280;41724;51.176;-0.708;2022-07-23T11:57:52;101433.09;;;26.28;30.20
55517;BME280;41724;51.176;-0.708;2022-07-23T12:00:21;101434.19;;;26.69;29.70
55517;BME280;41724;51.176;-0.708;2022-07-23T12:02:50;101432.43;;;26.90;29.64
55517;BME280;41724;51.176;-0.708;2022-07-23T12:05:20;101426.97;;;26.41;30.52
55517;BME280;41724;51.176;-0.708;2022-07-23T12:07:49;101419.13;;;26.93;29.17
55517;BME280;41724;51.176;-0.708;2022-07-23T12:10:19;101427.70;;;26.91;29.00
55517;BME280;41724;51.176;-0.708;2022-07-23T12:12:48;101427.51;;;27.13;29.39
55517;BME280;41724;51.176;-0.708;2022-07-23T12:15:17;101420.24;;;28.17;27.69
55517;BME280;41724;51.176;-0.708;2022-07-23T12:17:49;101422.52;;;28.49;28.56
55517;BME280;41724;51.176;-0.708;2022-07-23T12:20:18;101420.87;;;29.07;27.11
55517;BME280;41724;51.176;-0.708;2022-07-23T12:22:49;101430.07;;;29.10;27.53
55517;BME280;41724;51.176;-0.708;2022-07-23T12:25:19;101418.84;;;29.01;28.10
55517;BME280;41724;51.176;-0.708;2022-07-23T12:28:00;101421.38;;;29.47;27.14
55517;BME280;41724;51.176;-0.708;2022-07-23T12:30:29;101419.82;;;29.72;26.26
55517;BME280;41724;51.176;-0.708;2022-07-23T12:32:58;101419.64;;;30.05;24.74
55517;BME280;41724;51.176;-0.708;2022-07-23T12:35:33;101414.86;;;30.56;24.45
55517;BME280;41724;51.176;-0.708;2022-07-23T12:38:02;101419.47;;;29.72;26.25
55517;BME280;41724;51.176;-0.708;2022-07-23T12:40:32;101415.66;;;29.49;26.36
55517;BME280;41724;51.176;-0.708;2022-07-23T12:43:01;101427.67;;;29.44;27.34
55517;BME280;41724;51.176;-0.708;2022-07-23T12:45:45;101420.99;;;30.06;26.76
55517;BME280;41724;51.176;-0.708;2022-07-23T12:48:18;101419.51;;;29.53;26.13
55517;BME280;41724;51.176;-0.708;2022-07-23T12:50:51;101417.49;;;29.46;26.97